createdAt,value
2023-01-28T00:00:43.891Z,0.00
2023-01-28T00:01:43.758Z,0.00
2023-01-28T00:02:43.804Z,0.00
2023-01-28T00:03:43.943Z,0.00
2023-01-28T00:04:43.704Z,0.00
2023-01-28T00:05:43.734Z,0.00
2023-01-28T00:06:43.745Z,0.00
2023-01-28T00:07:43.776Z,0.00
2023-01-28T00:08:43.667Z,0.00
2023-01-28T00:09:43.915Z,0.00
2023-01-28T00:10:43.635Z,0.00
2023-01-28T00:11:43.868Z,0.00
2023-01-28T00:12:43.592Z,0.00
2023-01-28T00:13:43.612Z,0.00
2023-01-28T00:14:43.613Z,0.00
2023-01-28T00:15:43.602Z,0.00
2023-01-28T00:16:43.679Z,0.00
2023-01-28T00:17:43.525Z,0.00
2023-01-28T00:18:43.510Z,0.00
2023-01-28T00:19:43.502Z,0.00
2023-01-28T00:20:43.505Z,0.00
2023-01-28T00:21:43.502Z,0.00
2023-01-28T00:22:43.474Z,0.00
2023-01-28T00:23:43.484Z,0.00
2023-01-28T00:24:43.451Z,0.00
2023-01-28T00:25:43.438Z,0.00
2023-01-28T00:26:43.437Z,0.00
2023-01-28T00:27:43.443Z,0.00
2023-01-28T00:28:43.417Z,0.00
2023-01-28T00:29:43.412Z,0.00
2023-01-28T00:30:43.448Z,0.00
2023-01-28T00:31:43.455Z,0.00
2023-01-28T00:32:44.496Z,0.00
2023-01-28T00:33:43.365Z,0.00
2023-01-28T00:34:43.371Z,0.00
2023-01-28T00:35:43.334Z,0.00
2023-01-28T00:36:43.343Z,0.00
2023-01-28T00:37:43.336Z,0.00
2023-01-28T00:38:43.367Z,0.00
2023-01-28T00:39:43.317Z,0.00
2023-01-28T00:40:43.280Z,0.00
2023-01-28T00:41:43.319Z,0.00
2023-01-28T00:42:43.263Z,0.00
2023-01-28T00:43:43.255Z,0.00
2023-01-28T00:44:43.253Z,0.00
2023-01-28T00:45:43.262Z,0.00
2023-01-28T00:46:43.237Z,0.00
2023-01-28T00:47:43.221Z,0.00
2023-01-28T00:48:43.204Z,0.00
2023-01-28T00:49:43.215Z,0.00
2023-01-28T00:50:43.201Z,0.00
2023-01-28T00:51:43.187Z,0.00
2023-01-28T00:52:43.178Z,0.00
2023-01-28T00:53:43.205Z,0.00
2023-01-28T00:54:43.144Z,0.00
2023-01-28T00:55:43.143Z,0.00
2023-01-28T00:56:43.134Z,0.00
2023-01-28T00:57:43.144Z,0.00
2023-01-28T00:58:43.139Z,0.00
2023-01-28T00:59:43.111Z,0.00
2023-01-28T01:00:43.089Z,0.00
2023-01-28T01:01:43.166Z,0.00
2023-01-28T01:02:43.170Z,0.00
2023-01-28T01:03:43.063Z,0.00
2023-01-28T01:04:43.066Z,0.00
2023-01-28T01:05:43.061Z,0.00
2023-01-28T01:06:43.063Z,0.00
2023-01-28T01:07:43.022Z,0.00
2023-01-28T01:08:43.251Z,0.00
2023-01-28T01:09:43.002Z,0.00
2023-01-28T01:10:43.015Z,0.00
2023-01-28T01:11:42.992Z,0.00
2023-01-28T01:12:42.983Z,0.00
2023-01-28T01:13:42.979Z,0.00
2023-01-28T01:14:42.949Z,0.00
2023-01-28T01:15:43.035Z,0.00
2023-01-28T01:16:42.948Z,0.00
2023-01-28T01:17:42.968Z,0.00
2023-01-28T01:18:42.958Z,0.00
2023-01-28T01:19:42.909Z,0.00
2023-01-28T01:20:42.894Z,0.00
2023-01-28T01:21:42.916Z,0.00
2023-01-28T01:22:42.875Z,0.00
2023-01-28T01:23:42.882Z,0.00
2023-01-28T01:24:42.858Z,0.00
2023-01-28T01:25:42.839Z,0.00
2023-01-28T01:26:42.892Z,0.00
2023-01-28T01:27:42.835Z,0.00
2023-01-28T01:28:42.876Z,0.00
2023-01-28T01:29:42.808Z,0.00
2023-01-28T01:30:42.805Z,0.00
2023-01-28T01:31:42.829Z,0.00
2023-01-28T01:32:42.770Z,0.00
2023-01-28T01:33:42.801Z,0.00
2023-01-28T01:34:42.760Z,0.00
2023-01-28T01:35:42.756Z,0.00
2023-01-28T01:36:42.757Z,0.00
2023-01-28T01:37:42.725Z,0.00
2023-01-28T01:38:42.804Z,0.00
2023-01-28T01:39:42.721Z,0.00
2023-01-28T01:40:42.706Z,0.00
2023-01-28T01:41:42.716Z,0.00
2023-01-28T01:42:42.715Z,0.00
2023-01-28T01:43:42.668Z,0.00
2023-01-28T01:44:42.655Z,0.00
2023-01-28T01:45:42.687Z,0.00
2023-01-28T01:46:42.678Z,0.00
2023-01-28T01:47:42.641Z,0.00
2023-01-28T01:48:42.630Z,0.00
2023-01-28T01:49:42.658Z,0.00
2023-01-28T01:50:42.610Z,0.00
2023-01-28T01:51:42.621Z,0.00
2023-01-28T01:52:42.577Z,0.00
2023-01-28T01:53:42.597Z,0.00
2023-01-28T01:54:42.589Z,0.00
2023-01-28T01:55:42.603Z,0.00
2023-01-28T01:56:42.671Z,0.00
2023-01-28T01:57:42.551Z,0.00
2023-01-28T01:58:42.526Z,0.00
2023-01-28T01:59:42.533Z,0.00
2023-01-28T02:00:42.506Z,0.00
2023-01-28T02:01:42.516Z,0.00
2023-01-28T02:02:42.509Z,0.00
2023-01-28T02:03:42.515Z,0.00
2023-01-28T02:04:42.458Z,0.00
2023-01-28T02:05:42.448Z,0.00
2023-01-28T02:06:42.449Z,0.00
2023-01-28T02:07:42.433Z,0.00
2023-01-28T02:08:42.415Z,0.00
2023-01-28T02:09:42.425Z,0.00
2023-01-28T02:10:42.419Z,0.00
2023-01-28T02:11:42.423Z,0.00
2023-01-28T02:12:42.385Z,0.00
2023-01-28T02:13:42.384Z,0.00
2023-01-28T02:14:42.364Z,0.00
2023-01-28T02:15:42.350Z,0.00
2023-01-28T02:16:42.366Z,0.00
2023-01-28T02:17:42.363Z,0.00
2023-01-28T02:18:42.368Z,0.00
2023-01-28T02:19:42.346Z,0.00
2023-01-28T02:20:42.311Z,0.00
2023-01-28T02:21:42.310Z,0.00
2023-01-28T02:22:42.332Z,0.00
2023-01-28T02:23:42.281Z,0.00
2023-01-28T02:24:42.283Z,0.00
2023-01-28T02:25:42.280Z,0.00
2023-01-28T02:26:42.273Z,0.00
2023-01-28T02:27:42.269Z,0.00
2023-01-28T02:28:42.258Z,0.00
2023-01-28T02:29:42.210Z,0.00
2023-01-28T02:30:42.330Z,0.00
2023-01-28T02:31:42.345Z,0.00
2023-01-28T02:32:42.335Z,0.00
2023-01-28T02:33:42.187Z,0.00
2023-01-28T02:34:42.155Z,0.00
2023-01-28T02:35:42.175Z,0.00
2023-01-28T02:36:42.167Z,0.00
2023-01-28T02:37:42.159Z,0.00
2023-01-28T02:38:42.118Z,0.00
2023-01-28T02:39:42.128Z,0.00
2023-01-28T02:40:42.100Z,0.00
2023-01-28T02:41:42.123Z,0.00
2023-01-28T02:42:42.106Z,0.00
2023-01-28T02:43:42.076Z,0.00
2023-01-28T02:44:42.071Z,0.00
2023-01-28T02:45:42.075Z,0.00
2023-01-28T02:46:42.031Z,0.00
2023-01-28T02:47:42.094Z,0.00
2023-01-28T02:48:42.027Z,0.00
2023-01-28T02:49:42.025Z,0.00
2023-01-28T02:50:42.006Z,0.00
2023-01-28T02:51:41.995Z,0.00
2023-01-28T02:52:41.995Z,0.00
2023-01-28T02:53:41.973Z,0.00
2023-01-28T02:54:41.969Z,0.00
2023-01-28T02:55:41.999Z,0.00
2023-01-28T02:56:41.942Z,0.00
2023-01-28T02:57:41.970Z,0.00
2023-01-28T02:58:41.933Z,0.00
2023-01-28T02:59:41.943Z,0.00
2023-01-28T03:00:41.917Z,0.00
2023-01-28T03:01:41.937Z,0.00
2023-01-28T03:02:41.955Z,0.00
2023-01-28T03:03:41.864Z,0.00
2023-01-28T03:04:41.877Z,0.00
2023-01-28T03:05:41.877Z,0.00
2023-01-28T03:06:41.842Z,0.00
2023-01-28T03:07:41.857Z,0.00
2023-01-28T03:08:41.814Z,0.00
2023-01-28T03:09:41.814Z,0.00
2023-01-28T03:10:41.793Z,0.00
2023-01-28T03:11:41.801Z,0.00
2023-01-28T03:12:41.825Z,0.00
2023-01-28T03:13:41.758Z,0.00
2023-01-28T03:14:41.753Z,0.00
2023-01-28T03:15:41.755Z,0.00
2023-01-28T03:16:41.740Z,0.00
2023-01-28T03:17:41.764Z,0.00
2023-01-28T03:18:41.715Z,0.00
2023-01-28T03:19:41.709Z,0.00
2023-01-28T03:20:41.697Z,0.00
2023-01-28T03:21:41.713Z,0.00
2023-01-28T03:22:41.696Z,0.00
2023-01-28T03:23:41.658Z,0.00
2023-01-28T03:24:41.651Z,0.00
2023-01-28T03:25:41.653Z,0.00
2023-01-28T03:26:41.660Z,0.00
2023-01-28T03:27:41.644Z,0.00
2023-01-28T03:28:41.672Z,0.00
2023-01-28T03:29:42.089Z,0.00
2023-01-28T03:30:41.609Z,0.00
2023-01-28T03:31:41.621Z,0.00
2023-01-28T03:32:41.665Z,0.00
2023-01-28T03:33:41.569Z,0.00
2023-01-28T03:34:41.620Z,0.00
2023-01-28T03:35:41.561Z,0.00
2023-01-28T03:36:41.533Z,0.00
2023-01-28T03:37:41.561Z,0.00
2023-01-28T03:38:41.524Z,0.00
2023-01-28T03:39:41.507Z,0.00
2023-01-28T03:40:41.526Z,0.00
2023-01-28T03:41:41.490Z,0.00
2023-01-28T03:42:41.495Z,0.00
2023-01-28T03:43:41.463Z,0.00
2023-01-28T03:44:41.461Z,0.00
2023-01-28T03:45:41.446Z,0.00
2023-01-28T03:46:41.503Z,0.00
2023-01-28T03:47:41.436Z,0.00
2023-01-28T03:48:41.438Z,0.00
2023-01-28T03:49:41.398Z,0.00
2023-01-28T03:50:41.390Z,0.00
2023-01-28T03:51:41.493Z,0.00
2023-01-28T03:52:41.369Z,0.00
2023-01-28T03:53:41.368Z,0.00
2023-01-28T03:54:41.372Z,0.00
2023-01-28T03:55:41.357Z,0.00
2023-01-28T03:56:41.348Z,0.00
2023-01-28T03:57:41.342Z,0.00
2023-01-28T03:58:41.324Z,0.00
2023-01-28T03:59:41.301Z,0.00
2023-01-28T04:00:41.288Z,0.00
2023-01-28T04:01:41.327Z,0.00
2023-01-28T04:02:41.339Z,0.00
2023-01-28T04:03:41.279Z,0.00
2023-01-28T04:04:41.273Z,0.00
2023-01-28T04:05:41.246Z,0.00
2023-01-28T04:06:41.225Z,0.00
2023-01-28T04:07:41.239Z,0.00
2023-01-28T04:08:41.227Z,0.00
2023-01-28T04:09:41.199Z,0.00
2023-01-28T04:10:41.203Z,0.00
2023-01-28T04:11:41.191Z,0.00
2023-01-28T04:12:41.202Z,0.00
2023-01-28T04:13:41.157Z,0.00
2023-01-28T04:14:41.158Z,0.00
2023-01-28T04:15:41.128Z,0.00
2023-01-28T04:16:41.133Z,0.00
2023-01-28T04:17:41.176Z,0.00
2023-01-28T04:18:41.137Z,0.00
2023-01-28T04:19:41.124Z,0.00
2023-01-28T04:20:41.112Z,0.00
2023-01-28T04:21:41.105Z,0.00
2023-01-28T04:22:41.098Z,0.00
2023-01-28T04:23:41.148Z,0.00
2023-01-28T04:24:41.069Z,0.00
2023-01-28T04:25:41.035Z,0.00
2023-01-28T04:26:41.022Z,0.00
2023-01-28T04:27:41.229Z,0.00
2023-01-28T04:28:41.059Z,0.00
2023-01-28T04:29:41.000Z,0.00
2023-01-28T04:30:41.063Z,0.00
2023-01-28T04:31:41.005Z,0.00
2023-01-28T04:32:40.979Z,0.00
2023-01-28T04:33:40.973Z,0.00
2023-01-28T04:34:40.936Z,0.00
2023-01-28T04:35:40.928Z,0.00
2023-01-28T04:36:40.964Z,0.00
2023-01-28T04:37:41.035Z,0.00
2023-01-28T04:38:40.907Z,0.00
2023-01-28T04:39:40.897Z,0.00
2023-01-28T04:40:40.890Z,0.00
2023-01-28T04:41:40.867Z,0.00
2023-01-28T04:42:40.878Z,0.00
2023-01-28T04:43:40.862Z,0.00
2023-01-28T04:44:40.837Z,0.00
2023-01-28T04:45:40.824Z,0.00
2023-01-28T04:46:40.840Z,0.00
2023-01-28T04:47:40.811Z,0.00
2023-01-28T04:48:40.872Z,0.00
2023-01-28T04:49:40.792Z,0.00
2023-01-28T04:50:40.782Z,0.00
2023-01-28T04:51:40.762Z,0.00
2023-01-28T04:52:40.754Z,0.00
2023-01-28T04:53:40.893Z,0.00
2023-01-28T04:54:40.744Z,0.00
2023-01-28T04:55:40.725Z,0.00
2023-01-28T04:56:40.742Z,0.00
2023-01-28T04:57:40.715Z,0.00
2023-01-28T04:58:40.725Z,0.00
2023-01-28T04:59:40.687Z,0.00
2023-01-28T05:00:40.768Z,0.00
2023-01-28T05:01:40.711Z,0.00
2023-01-28T05:02:40.666Z,0.00
2023-01-28T05:03:40.684Z,0.00
2023-01-28T05:04:40.624Z,0.00
2023-01-28T05:05:40.622Z,0.00
2023-01-28T05:06:40.630Z,0.00
2023-01-28T05:07:40.591Z,0.00
2023-01-28T05:08:40.610Z,0.00
2023-01-28T05:09:40.571Z,0.00
2023-01-28T05:10:40.611Z,0.00
2023-01-28T05:11:40.642Z,0.00
2023-01-28T05:12:40.546Z,0.00
2023-01-28T05:13:40.536Z,0.00
2023-01-28T05:14:40.537Z,0.00
2023-01-28T05:15:40.512Z,0.00
2023-01-28T05:16:40.535Z,0.00
2023-01-28T05:17:40.533Z,0.00
2023-01-28T05:18:40.483Z,0.00
2023-01-28T05:19:40.477Z,0.00
2023-01-28T05:20:40.467Z,0.00
2023-01-28T05:21:40.461Z,0.00
2023-01-28T05:22:40.441Z,0.00
2023-01-28T05:23:40.422Z,0.00
2023-01-28T05:24:40.424Z,0.00
2023-01-28T05:25:40.399Z,0.00
2023-01-28T05:26:40.465Z,0.00
2023-01-28T05:27:40.395Z,0.00
2023-01-28T05:28:40.445Z,0.00
2023-01-28T05:29:40.372Z,0.00
2023-01-28T05:30:40.421Z,0.00
2023-01-28T05:31:40.397Z,0.00
2023-01-28T05:32:40.389Z,0.00
2023-01-28T05:33:40.336Z,0.00
2023-01-28T05:34:40.324Z,0.00
2023-01-28T05:35:40.347Z,0.00
2023-01-28T05:36:40.294Z,0.00
2023-01-28T05:37:40.287Z,0.00
2023-01-28T05:38:40.380Z,0.00
2023-01-28T05:39:40.311Z,0.00
2023-01-28T05:40:40.253Z,0.00
2023-01-28T05:41:40.239Z,0.00
2023-01-28T05:42:40.250Z,0.00
2023-01-28T05:43:40.302Z,0.00
2023-01-28T05:44:40.259Z,0.00
2023-01-28T05:45:40.272Z,0.00
2023-01-28T05:46:40.216Z,0.00
2023-01-28T05:47:47.785Z,0.00
2023-01-28T05:48:41.804Z,0.00
2023-01-28T05:49:40.826Z,0.00
2023-01-28T05:50:40.172Z,0.00
2023-01-28T05:51:40.147Z,0.00
2023-01-28T05:52:40.127Z,0.00
2023-01-28T05:53:40.140Z,0.00
2023-01-28T05:54:40.327Z,0.00
2023-01-28T05:55:40.089Z,0.00
2023-01-28T05:56:40.099Z,0.00
2023-01-28T05:57:40.096Z,0.00
2023-01-28T05:58:41.257Z,0.00
2023-01-28T05:59:40.058Z,0.00
2023-01-28T06:00:40.039Z,0.00
2023-01-28T06:01:40.045Z,0.00
2023-01-28T06:02:40.077Z,0.00
2023-01-28T06:03:40.282Z,0.00
2023-01-28T06:04:40.007Z,0.00
2023-01-28T06:05:40.237Z,0.00
2023-01-28T06:06:40.054Z,0.00
2023-01-28T06:07:39.966Z,0.00
2023-01-28T06:08:39.990Z,0.00
2023-01-28T06:09:39.957Z,0.00
2023-01-28T06:10:39.954Z,0.00
2023-01-28T06:11:39.928Z,0.00
2023-01-28T06:12:40.619Z,0.00
2023-01-28T06:13:40.739Z,0.00
2023-01-28T06:14:39.901Z,0.00
2023-01-28T06:15:39.914Z,0.00
2023-01-28T06:16:39.874Z,0.00
2023-01-28T06:17:39.871Z,0.00
2023-01-28T06:18:39.910Z,0.00
2023-01-28T06:19:40.031Z,0.00
2023-01-28T06:20:39.902Z,0.00
2023-01-28T06:21:39.902Z,0.00
2023-01-28T06:22:39.846Z,0.00
2023-01-28T06:23:40.376Z,0.00
2023-01-28T06:24:39.749Z,0.00
2023-01-28T06:25:39.782Z,0.00
2023-01-28T06:26:39.773Z,0.00
2023-01-28T06:27:39.772Z,0.00
2023-01-28T06:28:39.725Z,0.00
2023-01-28T06:29:39.771Z,0.00
2023-01-28T06:30:39.823Z,0.00
2023-01-28T06:31:39.685Z,0.00
2023-01-28T06:32:39.668Z,0.00
2023-01-28T06:33:39.654Z,0.00
2023-01-28T06:34:39.655Z,0.00
2023-01-28T06:35:39.619Z,0.00
2023-01-28T06:36:39.629Z,0.00
2023-01-28T06:37:39.620Z,0.00
2023-01-28T06:38:39.612Z,0.00
2023-01-28T06:39:39.585Z,0.00
2023-01-28T06:40:39.575Z,0.00
2023-01-28T06:41:39.569Z,0.00
2023-01-28T06:42:39.561Z,0.00
2023-01-28T06:43:39.547Z,0.00
2023-01-28T06:44:39.529Z,0.00
2023-01-28T06:45:39.518Z,0.00
2023-01-28T06:46:39.616Z,0.00
2023-01-28T06:47:39.493Z,0.00
2023-01-28T06:48:39.512Z,0.00
2023-01-28T06:49:39.472Z,0.00
2023-01-28T06:50:39.476Z,0.00
2023-01-28T06:51:39.459Z,0.00
2023-01-28T06:52:39.453Z,0.00
2023-01-28T06:53:39.459Z,0.00
2023-01-28T06:54:39.453Z,0.00
2023-01-28T06:55:39.418Z,0.00
2023-01-28T06:56:39.428Z,0.00
2023-01-28T06:57:39.403Z,0.00
2023-01-28T06:58:39.416Z,0.00
2023-01-28T06:59:39.372Z,0.00
2023-01-28T07:00:39.376Z,0.00
2023-01-28T07:01:39.397Z,0.00
2023-01-28T07:02:39.421Z,0.00
2023-01-28T07:03:39.337Z,0.00
2023-01-28T07:04:39.325Z,0.00
2023-01-28T07:05:39.314Z,0.00
2023-01-28T07:06:39.318Z,0.00
2023-01-28T07:07:41.768Z,0.00
2023-01-28T07:08:39.300Z,0.00
2023-01-28T07:09:39.287Z,0.00
2023-01-28T07:10:39.261Z,0.00
2023-01-28T07:11:39.265Z,0.00
2023-01-28T07:12:39.244Z,0.00
2023-01-28T07:13:39.259Z,0.00
2023-01-28T07:14:39.224Z,0.00
2023-01-28T07:15:39.210Z,0.00
2023-01-28T07:16:39.202Z,0.00
2023-01-28T07:17:39.183Z,0.00
2023-01-28T07:18:39.198Z,0.00
2023-01-28T07:19:39.190Z,0.00
2023-01-28T07:20:39.168Z,5.62
2023-01-28T07:21:39.143Z,5.62
2023-01-28T07:22:39.143Z,5.62
2023-01-28T07:23:39.136Z,5.62
2023-01-28T07:24:39.128Z,5.62
2023-01-28T07:25:39.111Z,5.62
2023-01-28T07:26:39.120Z,5.62
2023-01-28T07:27:39.087Z,5.62
2023-01-28T07:28:39.093Z,5.62
2023-01-28T07:29:39.072Z,5.62
2023-01-28T07:30:39.163Z,5.62
2023-01-28T07:31:39.151Z,5.62
2023-01-28T07:32:39.050Z,5.62
2023-01-28T07:33:39.042Z,5.62
2023-01-28T07:34:39.017Z,5.62
2023-01-28T07:35:39.023Z,5.62
2023-01-28T07:36:39.006Z,5.62
2023-01-28T07:37:38.988Z,5.62
2023-01-28T07:38:38.980Z,5.62
2023-01-28T07:39:38.961Z,5.62
2023-01-28T07:40:38.950Z,5.62
2023-01-28T07:41:38.973Z,5.62
2023-01-28T07:42:38.948Z,11.25
2023-01-28T07:43:38.988Z,11.25
2023-01-28T07:44:38.911Z,11.25
2023-01-28T07:45:38.908Z,11.25
2023-01-28T07:46:38.895Z,11.25
2023-01-28T07:47:38.894Z,11.25
2023-01-28T07:48:38.904Z,11.25
2023-01-28T07:49:38.853Z,11.25
2023-01-28T07:50:38.869Z,11.25
2023-01-28T07:51:38.839Z,11.25
2023-01-28T07:52:38.830Z,11.25
2023-01-28T07:53:38.833Z,11.25
2023-01-28T07:54:38.813Z,11.25
2023-01-28T07:55:38.807Z,11.25
2023-01-28T07:56:38.798Z,11.25
2023-01-28T07:57:38.772Z,11.25
2023-01-28T07:58:38.794Z,11.25
2023-01-28T07:59:38.754Z,11.25
2023-01-28T08:00:38.755Z,11.25
2023-01-28T08:01:38.767Z,11.25
2023-01-28T08:02:38.738Z,11.25
2023-01-28T08:03:38.791Z,11.25
2023-01-28T08:04:38.738Z,16.88
2023-01-28T08:05:38.689Z,16.88
2023-01-28T08:06:38.681Z,16.88
2023-01-28T08:07:38.693Z,16.88
2023-01-28T08:08:38.776Z,16.88
2023-01-28T08:09:38.673Z,16.88
2023-01-28T08:10:38.649Z,22.50
2023-01-28T08:11:38.676Z,22.50
2023-01-28T08:12:38.637Z,22.50
2023-01-28T08:13:38.693Z,22.50
2023-01-28T08:14:38.613Z,22.50
2023-01-28T08:15:38.644Z,22.50
2023-01-28T08:16:38.607Z,22.50
2023-01-28T08:17:38.631Z,22.50
2023-01-28T08:18:38.585Z,22.50
2023-01-28T08:19:38.593Z,22.50
2023-01-28T08:20:38.549Z,22.50
2023-01-28T08:21:38.555Z,22.50
2023-01-28T08:22:38.538Z,22.50
2023-01-28T08:23:38.554Z,22.50
2023-01-28T08:24:38.507Z,22.50
2023-01-28T08:25:38.506Z,22.50
2023-01-28T08:26:38.498Z,22.50
2023-01-28T08:27:38.526Z,22.50
2023-01-28T08:28:38.542Z,22.50
2023-01-28T08:29:38.460Z,22.50
2023-01-28T08:30:38.532Z,22.50
2023-01-28T08:31:38.465Z,22.50
2023-01-28T08:32:38.435Z,22.50
2023-01-28T08:33:38.450Z,22.50
2023-01-28T08:34:38.400Z,28.12
2023-01-28T08:35:38.403Z,28.12
2023-01-28T08:36:38.419Z,28.12
2023-01-28T08:37:38.375Z,28.12
2023-01-28T08:38:38.366Z,28.12
2023-01-28T08:39:38.378Z,28.12
2023-01-28T08:40:38.368Z,28.12
2023-01-28T08:41:38.373Z,28.12
2023-01-28T08:42:38.313Z,28.12
2023-01-28T08:43:38.311Z,28.12
2023-01-28T08:44:38.332Z,28.12
2023-01-28T08:45:38.304Z,28.12
2023-01-28T08:46:38.355Z,28.12
2023-01-28T08:47:38.310Z,28.12
2023-01-28T08:48:38.264Z,28.12
2023-01-28T08:49:38.355Z,28.12
2023-01-28T08:50:38.258Z,28.12
2023-01-28T08:51:38.224Z,28.12
2023-01-28T08:52:38.235Z,28.12
2023-01-28T08:53:38.215Z,28.12
2023-01-28T08:54:38.237Z,28.12
2023-01-28T08:55:38.188Z,28.12
2023-01-28T08:56:38.309Z,28.12
2023-01-28T08:57:38.167Z,28.12
2023-01-28T08:58:38.173Z,28.12
2023-01-28T08:59:38.173Z,28.12
2023-01-28T09:00:38.134Z,28.12
2023-01-28T09:01:38.167Z,28.12
2023-01-28T09:02:38.111Z,28.12
2023-01-28T09:03:38.102Z,33.75
2023-01-28T09:04:38.163Z,33.75
2023-01-28T09:05:38.084Z,33.75
2023-01-28T09:06:38.081Z,33.75
2023-01-28T09:07:38.071Z,33.75
2023-01-28T09:08:38.067Z,33.75
2023-01-28T09:09:38.067Z,33.75
2023-01-28T09:10:38.069Z,33.75
2023-01-28T09:11:38.055Z,33.75
2023-01-28T09:12:38.015Z,33.75
2023-01-28T09:13:38.033Z,39.38
2023-01-28T09:14:38.017Z,39.38
2023-01-28T09:15:37.995Z,39.38
2023-01-28T09:16:37.974Z,39.38
2023-01-28T09:17:37.956Z,33.75
2023-01-28T09:18:37.963Z,33.75
2023-01-28T09:19:37.966Z,33.75
2023-01-28T09:20:37.946Z,33.75
2023-01-28T09:21:37.947Z,33.75
2023-01-28T09:22:37.916Z,33.75
2023-01-28T09:23:37.907Z,33.75
2023-01-28T09:24:38.993Z,33.75
2023-01-28T09:25:37.871Z,33.75
2023-01-28T09:26:37.926Z,39.38
2023-01-28T09:27:37.889Z,39.38
2023-01-28T09:28:37.856Z,39.38
2023-01-28T09:29:37.873Z,39.38
2023-01-28T09:30:38.412Z,39.38
2023-01-28T09:31:37.998Z,39.38
2023-01-28T09:32:37.824Z,39.38
2023-01-28T09:33:37.801Z,39.38
2023-01-28T09:34:37.790Z,45.00
2023-01-28T09:35:37.809Z,45.00
2023-01-28T09:36:37.814Z,45.00
2023-01-28T09:37:37.810Z,45.00
2023-01-28T09:38:37.792Z,45.00
2023-01-28T09:39:37.794Z,45.00
2023-01-28T09:40:37.764Z,45.00
2023-01-28T09:41:37.740Z,45.00
2023-01-28T09:42:37.711Z,45.00
2023-01-28T09:43:37.735Z,45.00
2023-01-28T09:44:37.710Z,50.62
2023-01-28T09:45:37.720Z,50.62
2023-01-28T09:46:37.727Z,45.00
2023-01-28T09:47:37.659Z,45.00
2023-01-28T09:48:37.738Z,45.00
2023-01-28T09:49:37.702Z,45.00
2023-01-28T09:50:37.631Z,45.00
2023-01-28T09:51:37.640Z,45.00
2023-01-28T09:52:37.594Z,45.00
2023-01-28T09:53:37.602Z,45.00
2023-01-28T09:54:37.647Z,45.00
2023-01-28T09:55:37.682Z,45.00
2023-01-28T09:56:37.579Z,45.00
2023-01-28T09:57:37.571Z,45.00
2023-01-28T09:58:37.540Z,45.00
2023-01-28T09:59:37.635Z,45.00
2023-01-28T10:00:37.576Z,45.00
2023-01-28T10:01:37.565Z,45.00
2023-01-28T10:02:37.559Z,45.00
2023-01-28T10:03:37.574Z,45.00
2023-01-28T10:04:37.496Z,45.00
2023-01-28T10:05:40.542Z,45.00
2023-01-28T10:06:37.487Z,45.00
2023-01-28T10:07:37.479Z,45.00
2023-01-28T10:08:37.451Z,45.00
2023-01-28T10:09:37.443Z,45.00
2023-01-28T10:10:37.462Z,45.00
2023-01-28T10:11:37.418Z,45.00
2023-01-28T10:12:37.410Z,45.00
2023-01-28T10:13:37.387Z,45.00
2023-01-28T10:14:37.444Z,45.00
2023-01-28T10:15:37.364Z,45.00
2023-01-28T10:16:37.359Z,45.00
2023-01-28T10:17:37.439Z,45.00
2023-01-28T10:18:37.377Z,45.00
2023-01-28T10:19:37.408Z,45.00
2023-01-28T10:20:37.373Z,45.00
2023-01-28T10:21:37.336Z,45.00
2023-01-28T10:22:37.328Z,45.00
2023-01-28T10:23:37.301Z,45.00
2023-01-28T10:24:37.364Z,45.00
2023-01-28T10:25:37.274Z,45.00
2023-01-28T10:26:37.279Z,45.00
2023-01-28T10:27:37.331Z,45.00
2023-01-28T10:28:37.264Z,45.00
2023-01-28T10:29:37.254Z,39.38
2023-01-28T10:30:37.303Z,39.38
2023-01-28T10:31:37.282Z,39.38
2023-01-28T10:32:37.236Z,39.38
2023-01-28T10:33:37.202Z,39.38
2023-01-28T10:34:37.259Z,39.38
2023-01-28T10:35:37.155Z,39.38
2023-01-28T10:36:37.213Z,39.38
2023-01-28T10:37:37.171Z,45.00
2023-01-28T10:38:37.136Z,45.00
2023-01-28T10:39:37.245Z,45.00
2023-01-28T10:40:37.102Z,45.00
2023-01-28T10:41:42.502Z,45.00
2023-01-28T10:42:37.157Z,45.00
2023-01-28T10:43:37.103Z,45.00
2023-01-28T10:44:37.247Z,45.00
2023-01-28T10:45:37.110Z,45.00
2023-01-28T10:46:37.058Z,50.62
2023-01-28T10:47:37.061Z,50.62
2023-01-28T10:48:37.023Z,50.62
2023-01-28T10:49:37.124Z,50.62
2023-01-28T10:50:37.040Z,50.62
2023-01-28T10:51:37.114Z,50.62
2023-01-28T10:52:36.998Z,50.62
2023-01-28T10:53:37.036Z,50.62
2023-01-28T10:54:37.043Z,50.62
2023-01-28T10:55:36.967Z,56.25
2023-01-28T10:56:36.973Z,56.25
2023-01-28T10:57:36.963Z,56.25
2023-01-28T10:58:36.953Z,50.62
2023-01-28T10:59:36.953Z,50.62
2023-01-28T11:00:36.911Z,50.62
2023-01-28T11:01:37.072Z,50.62
2023-01-28T11:02:37.468Z,50.62
2023-01-28T11:03:36.984Z,50.62
2023-01-28T11:04:36.962Z,50.62
2023-01-28T11:05:37.094Z,50.62
2023-01-28T11:06:36.922Z,50.62
2023-01-28T11:07:36.914Z,50.62
2023-01-28T11:08:36.882Z,50.62
2023-01-28T11:09:37.000Z,50.62
2023-01-28T11:10:36.940Z,50.62
2023-01-28T11:11:36.852Z,50.62
2023-01-28T11:12:37.080Z,50.62
2023-01-28T11:13:36.821Z,50.62
2023-01-28T11:14:36.824Z,50.62
2023-01-28T11:15:36.780Z,50.62
2023-01-28T11:16:37.777Z,45.00
2023-01-28T11:17:36.873Z,45.00
2023-01-28T11:18:36.784Z,45.00
2023-01-28T11:19:36.929Z,45.00
2023-01-28T11:20:36.769Z,45.00
2023-01-28T11:21:36.759Z,45.00
2023-01-28T11:22:36.887Z,45.00
2023-01-28T11:23:36.812Z,45.00
2023-01-28T11:24:36.839Z,45.00
2023-01-28T11:25:36.688Z,45.00
2023-01-28T11:26:36.726Z,45.00
2023-01-28T11:27:36.910Z,45.00
2023-01-28T11:28:36.626Z,45.00
2023-01-28T11:29:36.669Z,45.00
2023-01-28T11:30:36.657Z,45.00
2023-01-28T11:31:36.728Z,45.00
2023-01-28T11:32:36.551Z,45.00
2023-01-28T11:33:37.134Z,39.38
2023-01-28T11:34:36.574Z,39.38
2023-01-28T11:35:36.556Z,39.38
2023-01-28T11:36:36.523Z,39.38
2023-01-28T11:37:36.516Z,39.38
2023-01-28T11:38:36.503Z,45.00
2023-01-28T11:39:36.524Z,39.38
2023-01-28T11:40:36.495Z,39.38
2023-01-28T11:41:36.487Z,39.38
2023-01-28T11:42:36.464Z,39.38
2023-01-28T11:43:36.466Z,39.38
2023-01-28T11:44:36.467Z,39.38
2023-01-28T11:45:36.470Z,39.38
2023-01-28T11:46:36.412Z,39.38
2023-01-28T11:47:44.184Z,39.38
2023-01-28T11:48:36.454Z,39.38
2023-01-28T11:49:36.402Z,39.38
2023-01-28T11:50:39.095Z,39.38
2023-01-28T11:51:36.398Z,39.38
2023-01-28T11:53:02.625Z,39.38
2023-01-28T11:53:36.399Z,39.38
2023-01-28T11:54:36.364Z,39.38
2023-01-28T11:55:36.358Z,39.38
2023-01-28T11:56:36.434Z,39.38
2023-01-28T11:57:36.297Z,39.38
2023-01-28T11:58:36.280Z,39.38
2023-01-28T11:59:36.302Z,39.38
2023-01-28T12:00:36.319Z,39.38
2023-01-28T12:01:36.267Z,39.38
2023-01-28T12:02:36.339Z,33.75
2023-01-28T12:03:36.249Z,33.75
2023-01-28T12:04:36.230Z,33.75
2023-01-28T12:05:36.274Z,28.12
2023-01-28T12:06:36.203Z,28.12
2023-01-28T12:07:36.191Z,28.12
2023-01-28T12:08:36.181Z,28.12
2023-01-28T12:09:36.192Z,28.12
2023-01-28T12:10:36.239Z,28.12
2023-01-28T12:11:36.214Z,28.12
2023-01-28T12:12:36.143Z,28.12
2023-01-28T12:13:36.177Z,28.12
2023-01-28T12:14:36.151Z,28.12
2023-01-28T12:15:36.108Z,28.12
2023-01-28T12:16:36.180Z,28.12
2023-01-28T12:17:36.186Z,28.12
2023-01-28T12:18:36.087Z,28.12
2023-01-28T12:19:36.092Z,22.50
2023-01-28T12:20:36.091Z,22.50
2023-01-28T12:21:36.053Z,22.50
2023-01-28T12:22:36.071Z,22.50
2023-01-28T12:23:36.054Z,22.50
2023-01-28T12:24:36.047Z,22.50
2023-01-28T12:25:36.050Z,22.50
2023-01-28T12:26:36.024Z,22.50
2023-01-28T12:27:36.008Z,22.50
2023-01-28T12:28:35.996Z,22.50
2023-01-28T12:29:35.965Z,22.50
2023-01-28T12:30:35.997Z,22.50
2023-01-28T12:31:36.044Z,22.50
2023-01-28T12:32:35.974Z,22.50
2023-01-28T12:33:35.973Z,22.50
2023-01-28T12:34:35.923Z,22.50
2023-01-28T12:35:35.925Z,22.50
2023-01-28T12:36:35.902Z,22.50
2023-01-28T12:37:35.926Z,22.50
2023-01-28T12:38:35.968Z,22.50
2023-01-28T12:39:35.906Z,22.50
2023-01-28T12:40:35.906Z,22.50
2023-01-28T12:41:35.874Z,22.50
2023-01-28T12:42:35.884Z,22.50
2023-01-28T12:43:35.858Z,22.50
2023-01-28T12:44:35.816Z,22.50
2023-01-28T12:45:35.923Z,22.50
2023-01-28T12:46:35.787Z,22.50
2023-01-28T12:47:35.788Z,22.50
2023-01-28T12:48:35.808Z,22.50
2023-01-28T12:49:35.770Z,22.50
2023-01-28T12:50:35.793Z,22.50
2023-01-28T12:51:35.790Z,28.12
2023-01-28T12:52:35.725Z,28.12
2023-01-28T12:53:35.713Z,28.12
2023-01-28T12:54:35.715Z,28.12
2023-01-28T12:55:35.778Z,28.12
2023-01-28T12:56:35.711Z,28.12
2023-01-28T12:57:35.718Z,28.12
2023-01-28T12:58:35.654Z,28.12
2023-01-28T12:59:35.664Z,22.50
2023-01-28T13:00:35.699Z,22.50
2023-01-28T13:01:35.664Z,22.50
2023-01-28T13:02:35.702Z,22.50
2023-01-28T13:03:35.615Z,22.50
2023-01-28T13:04:35.657Z,22.50
2023-01-28T13:05:35.597Z,22.50
2023-01-28T13:06:35.645Z,22.50
2023-01-28T13:07:35.612Z,22.50